sensor_id;sensor_type;location;lat;lon;timestamp;P1;durP1;ratioP1;P2;durP2;ratioP2
60306;SDS011;46155;52.364;6.580;2023-02-04T04:01:49;23.30;;;20.07;;
60306;SDS011;46155;52.364;6.580;2023-02-04T04:04:14;31.47;;;19.43;;
60306;SDS011;46155;52.364;6.580;2023-02-04T04:06:40;30.57;;;19.67;;
60306;SDS011;46155;52.364;6.580;2023-02-04T04:09:05;37.73;;;20.00;;
60306;SDS011;46155;52.364;6.580;2023-02-04T04:11:31;32.67;;;19.43;;
60306;SDS011;46155;52.364;6.580;2023-02-04T04:13:56;30.53;;;18.37;;
60306;SDS011;46155;52.364;6.580;2023-02-04T04:16:21;31.77;;;18.77;;
60306;SDS011;46155;52.364;6.580;2023-02-04T04:18:47;48.83;;;18.97;;
60306;SDS011;46155;52.364;6.580;2023-02-04T04:21:12;37.07;;;20.23;;
60306;SDS011;46155;52.364;6.580;2023-02-04T04:23:38;43.47;;;21.07;;
60306;SDS011;46155;52.364;6.580;2023-02-04T04:26:03;24.93;;;20.40;;
60306;SDS011;46155;52.364;6.580;2023-02-04T04:28:28;30.07;;;20.77;;
60306;SDS011;46155;52.364;6.580;2023-02-04T04:30:54;34.40;;;19.27;;
60306;SDS011;46155;52.364;6.580;2023-02-04T04:33:19;30.13;;;20.07;;
60306;SDS011;46155;52.364;6.580;2023-02-04T04:35:44;32.03;;;20.33;;
60306;SDS011;46155;52.364;6.580;2023-02-04T04:38:10;32.70;;;19.43;;
60306;SDS011;46155;52.364;6.580;2023-02-04T04:40:35;39.40;;;19.33;;
60306;SDS011;46155;52.364;6.580;2023-02-04T04:43:01;34.17;;;20.13;;
60306;SDS011;46155;52.364;6.580;2023-02-04T04:45:26;31.83;;;19.50;;
60306;SDS011;46155;52.364;6.580;2023-02-04T04:47:51;24.67;;;18.80;;
60306;SDS011;46155;52.364;6.580;2023-02-04T04:50:17;37.53;;;20.10;;
60306;SDS011;46155;52.364;6.580;2023-02-04T04:52:42;38.60;;;19.37;;
60306;SDS011;46155;52.364;6.580;2023-02-04T04:55:07;28.63;;;19.70;;
60306;SDS011;46155;52.364;6.580;2023-02-04T04:57:33;45.87;;;20.90;;
60306;SDS011;46155;52.364;6.580;2023-02-04T04:59:58;27.70;;;18.00;;
60306;SDS011;46155;52.364;6.580;2023-02-04T05:02:24;31.60;;;20.87;;
60306;SDS011;46155;52.364;6.580;2023-02-04T05:04:49;34.80;;;19.20;;
60306;SDS011;46155;52.364;6.580;2023-02-04T05:07:14;30.23;;;18.17;;
60306;SDS011;46155;52.364;6.580;2023-02-04T05:09:40;33.90;;;19.80;;
60306;SDS011;46155;52.364;6.580;2023-02-04T05:12:05;27.20;;;19.07;;
60306;SDS011;46155;52.364;6.580;2023-02-04T05:14:31;28.50;;;18.60;;
60306;SDS011;46155;52.364;6.580;2023-02-04T05:16:56;40.53;;;19.43;;
60306;SDS011;46155;52.364;6.580;2023-02-04T05:19:22;36.30;;;20.00;;
60306;SDS011;46155;52.364;6.580;2023-02-04T05:21:47;39.67;;;20.47;;
60306;SDS011;46155;52.364;6.580;2023-02-04T05:24:12;25.17;;;19.83;;
60306;SDS011;46155;52.364;6.580;2023-02-04T05:26:38;35.90;;;19.40;;
60306;SDS011;46155;52.364;6.580;2023-02-04T05:29:03;29.17;;;19.80;;
60306;SDS011;46155;52.364;6.580;2023-02-04T05:31:28;25.57;;;18.70;;
60306;SDS011;46155;52.364;6.580;2023-02-04T05:33:54;26.60;;;19.57;;
60306;SDS011;46155;52.364;6.580;2023-02-04T05:36:19;34.03;;;19.63;;
60306;SDS011;46155;52.364;6.580;2023-02-04T05:38:45;33.73;;;18.47;;
60306;SDS011;46155;52.364;6.580;2023-02-04T05:41:10;37.60;;;20.67;;
60306;SDS011;46155;52.364;6.580;2023-02-04T05:43:36;35.90;;;18.77;;
60306;SDS011;46155;52.364;6.580;2023-02-04T05:46:02;36.97;;;18.47;;
60306;SDS011;46155;52.364;6.580;2023-02-04T05:48:27;29.13;;;18.27;;
60306;SDS011;46155;52.364;6.580;2023-02-04T05:50:52;31.93;;;19.30;;
60306;SDS011;46155;52.364;6.580;2023-02-04T05:53:18;29.50;;;17.50;;
60306;SDS011;46155;52.364;6.580;2023-02-04T05:55:43;33.63;;;17.17;;
60306;SDS011;46155;52.364;6.580;2023-02-04T05:58:09;38.93;;;18.53;;
60306;SDS011;46155;52.364;6.580;2023-02-04T06:00:34;40.73;;;20.00;;
60306;SDS011;46155;52.364;6.580;2023-02-04T06:02:59;34.13;;;17.67;;
60306;SDS011;46155;52.364;6.580;2023-02-04T06:05:25;38.60;;;18.77;;
60306;SDS011;46155;52.364;6.580;2023-02-04T06:07:50;34.97;;;17.17;;
60306;SDS011;46155;52.364;6.580;2023-02-04T06:10:15;44.57;;;16.60;;
60306;SDS011;46155;52.364;6.580;2023-02-04T06:12:41;26.50;;;16.83;;
60306;SDS011;46155;52.364;6.580;2023-02-04T06:15:06;33.70;;;17.30;;
60306;SDS011;46155;52.364;6.580;2023-02-04T06:17:32;29.20;;;17.80;;
60306;SDS011;46155;52.364;6.580;2023-02-04T06:19:57;36.83;;;18.13;;
60306;SDS011;46155;52.364;6.580;2023-02-04T06:22:23;25.70;;;16.33;;
60306;SDS011;46155;52.364;6.580;2023-02-04T06:24:49;36.43;;;18.13;;
60306;SDS011;46155;52.364;6.580;2023-02-04T06:27:15;43.37;;;18.07;;
60306;SDS011;46155;52.364;6.580;2023-02-04T06:29:47;35.30;;;18.63;;
60306;SDS011;46155;52.364;6.580;2023-02-04T06:32:16;36.70;;;18.53;;
60306;SDS011;46155;52.364;6.580;2023-02-04T06:34:41;35.20;;;19.47;;
60306;SDS011;46155;52.364;6.580;2023-02-04T06:37:07;19.00;;;16.40;;
60306;SDS011;46155;52.364;6.580;2023-02-04T06:39:32;21.80;;;17.37;;
60306;SDS011;46155;52.364;6.580;2023-02-04T06:41:58;21.90;;;16.57;;
60306;SDS011;46155;52.364;6.580;2023-02-04T06:44:23;26.47;;;16.87;;
60306;SDS011;46155;52.364;6.580;2023-02-04T06:46:48;31.37;;;17.93;;
60306;SDS011;46155;52.364;6.580;2023-02-04T06:49:14;28.13;;;17.27;;
60306;SDS011;46155;52.364;6.580;2023-02-04T06:51:39;29.60;;;17.43;;
60306;SDS011;46155;52.364;6.580;2023-02-04T06:54:04;23.33;;;16.37;;
60306;SDS011;46155;52.364;6.580;2023-02-04T06:56:30;36.10;;;18.17;;
60306;SDS011;46155;52.364;6.580;2023-02-04T06:58:55;21.83;;;17.83;;
60306;SDS011;46155;52.364;6.580;2023-02-04T07:01:20;21.50;;;16.87;;
60306;SDS011;46155;52.364;6.580;2023-02-04T07:03:46;26.27;;;19.10;;
60306;SDS011;46155;52.364;6.580;2023-02-04T07:06:11;31.57;;;16.30;;
60306;SDS011;46155;52.364;6.580;2023-02-04T07:08:36;20.93;;;15.17;;
60306;SDS011;46155;52.364;6.580;2023-02-04T07:11:02;18.50;;;14.47;;
60306;SDS011;46155;52.364;6.580;2023-02-04T07:13:27;26.87;;;15.73;;
60306;SDS011;46155;52.364;6.580;2023-02-04T07:15:52;40.17;;;15.77;;
60306;SDS011;46155;52.364;6.580;2023-02-04T07:18:18;28.00;;;14.87;;
60306;SDS011;46155;52.364;6.580;2023-02-04T07:20:44;27.13;;;13.93;;
60306;SDS011;46155;52.364;6.580;2023-02-04T07:23:09;29.53;;;13.40;;
60306;SDS011;46155;52.364;6.580;2023-02-04T07:25:35;32.37;;;13.50;;
60306;SDS011;46155;52.364;6.580;2023-02-04T07:28:00;31.60;;;14.93;;
60306;SDS011;46155;52.364;6.580;2023-02-04T07:30:27;24.30;;;12.20;;
60306;SDS011;46155;52.364;6.580;2023-02-04T07:32:53;26.83;;;11.87;;
60306;SDS011;46155;52.364;6.580;2023-02-04T07:35:18;18.03;;;12.70;;
60306;SDS011;46155;52.364;6.580;2023-02-04T07:37:44;17.23;;;11.30;;
60306;SDS011;46155;52.364;6.580;2023-02-04T07:40:10;24.87;;;11.50;;
60306;SDS011;46155;52.364;6.580;2023-02-04T07:42:36;29.13;;;12.80;;
60306;SDS011;46155;52.364;6.580;2023-02-04T07:45:02;30.17;;;13.33;;
60306;SDS011;46155;52.364;6.580;2023-02-04T07:47:27;28.50;;;13.00;;
60306;SDS011;46155;52.364;6.580;2023-02-04T07:49:53;22.33;;;13.57;;
60306;SDS011;46155;52.364;6.580;2023-02-04T07:52:21;19.17;;;13.30;;
60306;SDS011;46155;52.364;6.580;2023-02-04T07:54:47;22.10;;;14.03;;
60306;SDS011;46155;52.364;6.580;2023-02-04T07:57:12;22.93;;;13.97;;
60306;SDS011;46155;52.364;6.580;2023-02-04T07:59:37;32.67;;;15.50;;
60306;SDS011;46155;52.364;6.580;2023-02-04T08:02:03;29.20;;;13.77;;
60306;SDS011;46155;52.364;6.580;2023-02-04T08:04:28;29.50;;;14.40;;
60306;SDS011;46155;52.364;6.580;2023-02-04T08:06:53;28.17;;;13.63;;
60306;SDS011;46155;52.364;6.580;2023-02-04T08:09:19;34.97;;;17.43;;
60306;SDS011;46155;52.364;6.580;2023-02-04T08:11:44;28.53;;;15.20;;
60306;SDS011;46155;52.364;6.580;2023-02-04T08:14:09;29.43;;;16.47;;
60306;SDS011;46155;52.364;6.580;2023-02-04T08:16:35;46.67;;;17.67;;
60306;SDS011;46155;52.364;6.580;2023-02-04T08:19:00;32.40;;;17.73;;
60306;SDS011;46155;52.364;6.580;2023-02-04T08:21:25;33.90;;;17.17;;
60306;SDS011;46155;52.364;6.580;2023-02-04T08:23:50;27.60;;;17.93;;
60306;SDS011;46155;52.364;6.580;2023-02-04T08:26:16;37.13;;;17.33;;
60306;SDS011;46155;52.364;6.580;2023-02-04T08:28:41;35.70;;;17.67;;
60306;SDS011;46155;52.364;6.580;2023-02-04T08:31:07;29.17;;;16.87;;
60306;SDS011;46155;52.364;6.580;2023-02-04T08:33:37;37.70;;;17.33;;
60306;SDS011;46155;52.364;6.580;2023-02-04T08:36:03;40.90;;;18.80;;
60306;SDS011;46155;52.364;6.580;2023-02-04T08:38:32;38.53;;;16.80;;
60306;SDS011;46155;52.364;6.580;2023-02-04T08:40:57;45.37;;;19.67;;
60306;SDS011;46155;52.364;6.580;2023-02-04T08:43:23;55.90;;;20.33;;
60306;SDS011;46155;52.364;6.580;2023-02-04T08:45:49;44.20;;;20.87;;
60306;SDS011;46155;52.364;6.580;2023-02-04T08:48:14;32.90;;;20.67;;
60306;SDS011;46155;52.364;6.580;2023-02-04T08:50:40;43.60;;;22.60;;
60306;SDS011;46155;52.364;6.580;2023-02-04T08:53:05;43.67;;;24.37;;
60306;SDS011;46155;52.364;6.580;2023-02-04T08:55:30;31.67;;;23.27;;
60306;SDS011;46155;52.364;6.580;2023-02-04T08:57:56;46.07;;;21.60;;
60306;SDS011;46155;52.364;6.580;2023-02-04T09:00:23;48.63;;;21.30;;
60306;SDS011;46155;52.364;6.580;2023-02-04T09:02:48;39.43;;;21.43;;
60306;SDS011;46155;52.364;6.580;2023-02-04T09:05:13;32.77;;;22.47;;
60306;SDS011;46155;52.364;6.580;2023-02-04T09:07:39;60.10;;;21.00;;
60306;SDS011;46155;52.364;6.580;2023-02-04T09:10:04;41.97;;;22.37;;
60306;SDS011;46155;52.364;6.580;2023-02-04T09:12:30;34.87;;;23.83;;
60306;SDS011;46155;52.364;6.580;2023-02-04T09:14:55;44.50;;;22.83;;
60306;SDS011;46155;52.364;6.580;2023-02-04T09:17:20;46.63;;;22.63;;
60306;SDS011;46155;52.364;6.580;2023-02-04T09:19:46;36.70;;;20.27;;
60306;SDS011;46155;52.364;6.580;2023-02-04T09:22:11;52.23;;;21.60;;
60306;SDS011;46155;52.364;6.580;2023-02-04T09:24:37;45.27;;;21.17;;
60306;SDS011;46155;52.364;6.580;2023-02-04T09:27:02;62.43;;;23.00;;
60306;SDS011;46155;52.364;6.580;2023-02-04T09:29:28;37.07;;;20.63;;
60306;SDS011;46155;52.364;6.580;2023-02-04T09:31:53;49.53;;;22.03;;
60306;SDS011;46155;52.364;6.580;2023-02-04T09:34:18;50.03;;;19.40;;
60306;SDS011;46155;52.364;6.580;2023-02-04T09:36:44;40.70;;;18.30;;
60306;SDS011;46155;52.364;6.580;2023-02-04T09:39:09;54.20;;;20.30;;
60306;SDS011;46155;52.364;6.580;2023-02-04T09:41:35;45.53;;;19.23;;
60306;SDS011;46155;52.364;6.580;2023-02-04T09:44:03;39.63;;;19.10;;
60306;SDS011;46155;52.364;6.580;2023-02-04T09:46:32;48.00;;;19.80;;
60306;SDS011;46155;52.364;6.580;2023-02-04T09:48:58;65.97;;;20.33;;
60306;SDS011;46155;52.364;6.580;2023-02-04T09:51:25;29.63;;;16.60;;
60306;SDS011;46155;52.364;6.580;2023-02-04T09:53:52;56.73;;;18.23;;
60306;SDS011;46155;52.364;6.580;2023-02-04T09:56:29;60.73;;;18.37;;
60306;SDS011;46155;52.364;6.580;2023-02-04T09:58:54;31.27;;;17.13;;
60306;SDS011;46155;52.364;6.580;2023-02-04T10:01:20;48.50;;;17.53;;
60306;SDS011;46155;52.364;6.580;2023-02-04T10:03:46;35.10;;;15.90;;
60306;SDS011;46155;52.364;6.580;2023-02-04T10:06:16;35.70;;;18.03;;
60306;SDS011;46155;52.364;6.580;2023-02-04T10:08:43;42.03;;;15.97;;
60306;SDS011;46155;52.364;6.580;2023-02-04T10:11:10;35.17;;;15.27;;
60306;SDS011;46155;52.364;6.580;2023-02-04T10:13:38;39.83;;;16.13;;
60306;SDS011;46155;52.364;6.580;2023-02-04T10:16:18;30.87;;;14.90;;
60306;SDS011;46155;52.364;6.580;2023-02-04T10:18:46;38.03;;;14.67;;
60306;SDS011;46155;52.364;6.580;2023-02-04T10:21:13;41.13;;;13.33;;
60306;SDS011;46155;52.364;6.580;2023-02-04T10:23:47;34.67;;;13.30;;
60306;SDS011;46155;52.364;6.580;2023-02-04T10:26:16;40.70;;;14.80;;
60306;SDS011;46155;52.364;6.580;2023-02-04T10:28:49;46.13;;;13.83;;
60306;SDS011;46155;52.364;6.580;2023-02-04T10:31:40;34.70;;;12.77;;
60306;SDS011;46155;52.364;6.580;2023-02-04T10:34:12;32.93;;;12.40;;
60306;SDS011;46155;52.364;6.580;2023-02-04T10:36:41;39.27;;;13.67;;
60306;SDS011;46155;52.364;6.580;2023-02-04T10:39:16;30.70;;;12.97;;
60306;SDS011;46155;52.364;6.580;2023-02-04T10:41:55;28.40;;;13.47;;
60306;SDS011;46155;52.364;6.580;2023-02-04T10:44:28;34.80;;;12.33;;
60306;SDS011;46155;52.364;6.580;2023-02-04T10:47:02;47.63;;;12.90;;
60306;SDS011;46155;52.364;6.580;2023-02-04T10:49:29;36.10;;;12.27;;
60306;SDS011;46155;52.364;6.580;2023-02-04T10:51:54;40.97;;;13.97;;
60306;SDS011;46155;52.364;6.580;2023-02-04T10:54:20;39.17;;;13.83;;
60306;SDS011;46155;52.364;6.580;2023-02-04T10:57:06;29.67;;;11.30;;
60306;SDS011;46155;52.364;6.580;2023-02-04T10:59:37;54.07;;;14.40;;
60306;SDS011;46155;52.364;6.580;2023-02-04T11:02:12;26.37;;;12.80;;
60306;SDS011;46155;52.364;6.580;2023-02-04T11:04:53;34.83;;;14.10;;
60306;SDS011;46155;52.364;6.580;2023-02-04T11:07:19;25.17;;;12.60;;
60306;SDS011;46155;52.364;6.580;2023-02-04T11:09:46;36.93;;;13.93;;
60306;SDS011;46155;52.364;6.580;2023-02-04T11:12:22;35.50;;;13.80;;
60306;SDS011;46155;52.364;6.580;2023-02-04T11:14:59;31.07;;;13.10;;
60306;SDS011;46155;52.364;6.580;2023-02-04T11:17:28;32.43;;;12.90;;
60306;SDS011;46155;52.364;6.580;2023-02-04T11:19:55;27.40;;;12.73;;
60306;SDS011;46155;52.364;6.580;2023-02-04T11:23:12;29.73;;;13.03;;
60306;SDS011;46155;52.364;6.580;2023-02-04T11:25:33;28.53;;;11.37;;
60306;SDS011;46155;52.364;6.580;2023-02-04T11:30:59;21.97;;;11.93;;
60306;SDS011;46155;52.364;6.580;2023-02-04T11:33:35;26.40;;;13.60;;
60306;SDS011;46155;52.364;6.580;2023-02-04T11:36:03;31.60;;;12.10;;
60306;SDS011;46155;52.364;6.580;2023-02-04T11:38:30;31.67;;;12.67;;
60306;SDS011;46155;52.364;6.580;2023-02-04T11:40:57;27.83;;;13.20;;
60306;SDS011;46155;52.364;6.580;2023-02-04T11:43:23;31.40;;;12.27;;
60306;SDS011;46155;52.364;6.580;2023-02-04T11:45:48;37.80;;;13.83;;
60306;SDS011;46155;52.364;6.580;2023-02-04T11:48:26;43.33;;;12.80;;
60306;SDS011;46155;52.364;6.580;2023-02-04T11:50:55;40.97;;;12.37;;
60306;SDS011;46155;52.364;6.580;2023-02-04T11:53:29;24.23;;;12.73;;
60306;SDS011;46155;52.364;6.580;2023-02-04T11:55:56;26.30;;;13.23;;
60306;SDS011;46155;52.364;6.580;2023-02-04T11:58:22;30.13;;;12.90;;
60306;SDS011;46155;52.364;6.580;2023-02-04T12:00:50;29.37;;;12.33;;
60306;SDS011;46155;52.364;6.580;2023-02-04T12:03:23;35.43;;;11.80;;
60306;SDS011;46155;52.364;6.580;2023-02-04T12:05:58;26.27;;;11.73;;
60306;SDS011;46155;52.364;6.580;2023-02-04T12:11:03;23.43;;;12.10;;
60306;SDS011;46155;52.364;6.580;2023-02-04T12:13:45;26.47;;;11.40;;
60306;SDS011;46155;52.364;6.580;2023-02-04T12:16:13;16.33;;;9.47;;
60306;SDS011;46155;52.364;6.580;2023-02-04T12:18:38;30.73;;;12.03;;
60306;SDS011;46155;52.364;6.580;2023-02-04T12:21:04;32.30;;;10.37;;
60306;SDS011;46155;52.364;6.580;2023-02-04T12:23:29;39.23;;;10.93;;
60306;SDS011;46155;52.364;6.580;2023-02-04T12:25:55;25.83;;;10.83;;
60306;SDS011;46155;52.364;6.580;2023-02-04T12:28:21;31.83;;;10.43;;
60306;SDS011;46155;52.364;6.580;2023-02-04T12:30:47;37.30;;;9.97;;
60306;SDS011;46155;52.364;6.580;2023-02-04T12:33:13;31.33;;;10.37;;
60306;SDS011;46155;52.364;6.580;2023-02-04T12:35:39;38.03;;;10.70;;
60306;SDS011;46155;52.364;6.580;2023-02-04T12:38:05;25.23;;;10.10;;
60306;SDS011;46155;52.364;6.580;2023-02-04T12:40:31;32.40;;;10.13;;
60306;SDS011;46155;52.364;6.580;2023-02-04T12:42:56;33.73;;;10.03;;
60306;SDS011;46155;52.364;6.580;2023-02-04T12:45:22;20.60;;;9.27;;
60306;SDS011;46155;52.364;6.580;2023-02-04T12:47:47;38.93;;;9.90;;
60306;SDS011;46155;52.364;6.580;2023-02-04T12:50:14;27.33;;;9.40;;
60306;SDS011;46155;52.364;6.580;2023-02-04T12:52:55;30.10;;;9.73;;
60306;SDS011;46155;52.364;6.580;2023-02-04T12:55:22;25.07;;;9.60;;
60306;SDS011;46155;52.364;6.580;2023-02-04T12:57:48;27.70;;;9.27;;
60306;SDS011;46155;52.364;6.580;2023-02-04T13:00:15;23.93;;;8.93;;
60306;SDS011;46155;52.364;6.580;2023-02-04T13:02:42;46.90;;;9.60;;
60306;SDS011;46155;52.364;6.580;2023-02-04T13:05:07;25.83;;;10.43;;
60306;SDS011;46155;52.364;6.580;2023-02-04T13:07:32;25.97;;;8.77;;
60306;SDS011;46155;52.364;6.580;2023-02-04T13:09:58;41.17;;;9.37;;
60306;SDS011;46155;52.364;6.580;2023-02-04T13:12:24;30.63;;;9.50;;
60306;SDS011;46155;52.364;6.580;2023-02-04T13:14:50;23.77;;;8.70;;
60306;SDS011;46155;52.364;6.580;2023-02-04T13:17:15;24.63;;;9.10;;
60306;SDS011;46155;52.364;6.580;2023-02-04T13:19:41;28.03;;;9.23;;
60306;SDS011;46155;52.364;6.580;2023-02-04T13:22:06;37.13;;;8.83;;
60306;SDS011;46155;52.364;6.580;2023-02-04T13:24:32;26.23;;;9.17;;
60306;SDS011;46155;52.364;6.580;2023-02-04T13:27:01;30.90;;;8.43;;
60306;SDS011;46155;52.364;6.580;2023-02-04T13:29:27;24.60;;;9.63;;
60306;SDS011;46155;52.364;6.580;2023-02-04T13:31:52;23.97;;;8.20;;
60306;SDS011;46155;52.364;6.580;2023-02-04T13:34:18;30.80;;;9.13;;
60306;SDS011;46155;52.364;6.580;2023-02-04T13:36:43;34.17;;;9.40;;
60306;SDS011;46155;52.364;6.580;2023-02-04T13:39:09;38.10;;;9.13;;
60306;SDS011;46155;52.364;6.580;2023-02-04T13:41:35;33.87;;;9.67;;
60306;SDS011;46155;52.364;6.580;2023-02-04T13:44:01;20.60;;;8.33;;
60306;SDS011;46155;52.364;6.580;2023-02-04T13:46:27;33.87;;;9.53;;
60306;SDS011;46155;52.364;6.580;2023-02-04T13:48:52;26.70;;;10.43;;
60306;SDS011;46155;52.364;6.580;2023-02-04T13:51:18;24.43;;;8.83;;
60306;SDS011;46155;52.364;6.580;2023-02-04T13:53:43;26.23;;;8.33;;
60306;SDS011;46155;52.364;6.580;2023-02-04T13:56:08;28.07;;;9.17;;
60306;SDS011;46155;52.364;6.580;2023-02-04T13:58:34;25.27;;;8.40;;
60306;SDS011;46155;52.364;6.580;2023-02-04T14:01:00;27.50;;;9.40;;
60306;SDS011;46155;52.364;6.580;2023-02-04T14:03:26;31.93;;;9.13;;
60306;SDS011;46155;52.364;6.580;2023-02-04T14:05:53;33.00;;;9.47;;
60306;SDS011;46155;52.364;6.580;2023-02-04T14:08:19;23.80;;;9.80;;
60306;SDS011;46155;52.364;6.580;2023-02-04T14:10:45;31.80;;;8.90;;
60306;SDS011;46155;52.364;6.580;2023-02-04T14:13:11;21.70;;;8.20;;
60306;SDS011;46155;52.364;6.580;2023-02-04T14:15:36;26.53;;;8.83;;
60306;SDS011;46155;52.364;6.580;2023-02-04T14:18:03;38.53;;;9.77;;
60306;SDS011;46155;52.364;6.580;2023-02-04T14:20:29;15.80;;;8.93;;
60306;SDS011;46155;52.364;6.580;2023-02-04T14:22:55;34.20;;;9.13;;
60306;SDS011;46155;52.364;6.580;2023-02-04T14:25:20;36.00;;;9.93;;
60306;SDS011;46155;52.364;6.580;2023-02-04T14:27:46;21.33;;;9.20;;
60306;SDS011;46155;52.364;6.580;2023-02-04T14:30:15;23.30;;;8.00;;
60306;SDS011;46155;52.364;6.580;2023-02-04T14:32:45;23.73;;;7.53;;
60306;SDS011;46155;52.364;6.580;2023-02-04T14:35:11;32.00;;;7.63;;
60306;SDS011;46155;52.364;6.580;2023-02-04T14:37:38;30.57;;;9.83;;
60306;SDS011;46155;52.364;6.580;2023-02-04T14:40:04;18.67;;;8.03;;
60306;SDS011;46155;52.364;6.580;2023-02-04T14:42:30;36.07;;;8.73;;
60306;SDS011;46155;52.364;6.580;2023-02-04T14:44:55;27.37;;;8.20;;
60306;SDS011;46155;52.364;6.580;2023-02-04T14:47:21;18.27;;;9.17;;
60306;SDS011;46155;52.364;6.580;2023-02-04T14:49:46;28.20;;;8.27;;
60306;SDS011;46155;52.364;6.580;2023-02-04T14:52:11;38.43;;;8.50;;
60306;SDS011;46155;52.364;6.580;2023-02-04T14:54:38;32.77;;;9.67;;
60306;SDS011;46155;52.364;6.580;2023-02-04T14:57:03;25.53;;;8.73;;
60306;SDS011;46155;52.364;6.580;2023-02-04T14:59:28;17.97;;;7.90;;
60306;SDS011;46155;52.364;6.580;2023-02-04T15:01:54;25.03;;;8.50;;
60306;SDS011;46155;52.364;6.580;2023-02-04T15:04:19;28.23;;;9.17;;
60306;SDS011;46155;52.364;6.580;2023-02-04T15:06:45;22.03;;;7.77;;
60306;SDS011;46155;52.364;6.580;2023-02-04T15:09:10;31.60;;;9.97;;
60306;SDS011;46155;52.364;6.580;2023-02-04T15:11:36;22.83;;;8.83;;
60306;SDS011;46155;52.364;6.580;2023-02-04T15:14:01;25.77;;;8.97;;
60306;SDS011;46155;52.364;6.580;2023-02-04T15:16:27;25.13;;;8.53;;
60306;SDS011;46155;52.364;6.580;2023-02-04T15:18:53;27.90;;;9.37;;
60306;SDS011;46155;52.364;6.580;2023-02-04T15:21:18;22.97;;;8.43;;
60306;SDS011;46155;52.364;6.580;2023-02-04T15:23:43;24.40;;;8.97;;
60306;SDS011;46155;52.364;6.580;2023-02-04T15:26:11;20.67;;;9.70;;
60306;SDS011;46155;52.364;6.580;2023-02-04T15:28:37;25.57;;;8.90;;
60306;SDS011;46155;52.364;6.580;2023-02-04T15:31:02;26.03;;;8.83;;
60306;SDS011;46155;52.364;6.580;2023-02-04T15:33:29;25.27;;;8.87;;
60306;SDS011;46155;52.364;6.580;2023-02-04T15:35:54;32.37;;;8.90;;
60306;SDS011;46155;52.364;6.580;2023-02-04T15:38:20;22.17;;;8.37;;
60306;SDS011;46155;52.364;6.580;2023-02-04T15:40:45;27.03;;;8.90;;
60306;SDS011;46155;52.364;6.580;2023-02-04T15:43:10;20.00;;;8.80;;
60306;SDS011;46155;52.364;6.580;2023-02-04T15:45:35;33.00;;;9.87;;
60306;SDS011;46155;52.364;6.580;2023-02-04T15:48:05;31.43;;;9.40;;
60306;SDS011;46155;52.364;6.580;2023-02-04T15:50:31;21.90;;;7.60;;
60306;SDS011;46155;52.364;6.580;2023-02-04T15:52:56;17.63;;;8.97;;
60306;SDS011;46155;52.364;6.580;2023-02-04T15:55:22;16.77;;;8.53;;
60306;SDS011;46155;52.364;6.580;2023-02-04T15:57:47;20.47;;;7.93;;
60306;SDS011;46155;52.364;6.580;2023-02-04T16:00:13;23.80;;;8.13;;
60306;SDS011;46155;52.364;6.580;2023-02-04T16:02:38;27.90;;;9.93;;
60306;SDS011;46155;52.364;6.580;2023-02-04T16:05:04;23.13;;;8.37;;
60306;SDS011;46155;52.364;6.580;2023-02-04T16:07:30;25.10;;;8.37;;
60306;SDS011;46155;52.364;6.580;2023-02-04T16:09:55;20.93;;;9.10;;
60306;SDS011;46155;52.364;6.580;2023-02-04T16:12:20;19.97;;;7.57;;
60306;SDS011;46155;52.364;6.580;2023-02-04T16:14:45;26.27;;;9.77;;
60306;SDS011;46155;52.364;6.580;2023-02-04T16:17:11;20.60;;;9.40;;
60306;SDS011;46155;52.364;6.580;2023-02-04T16:19:36;23.00;;;9.40;;
60306;SDS011;46155;52.364;6.580;2023-02-04T16:22:01;20.93;;;9.00;;
60306;SDS011;46155;52.364;6.580;2023-02-04T16:24:27;22.93;;;8.40;;
60306;SDS011;46155;52.364;6.580;2023-02-04T16:26:52;19.33;;;8.17;;
60306;SDS011;46155;52.364;6.580;2023-02-04T16:29:17;29.00;;;9.70;;
60306;SDS011;46155;52.364;6.580;2023-02-04T16:31:43;17.30;;;8.67;;
60306;SDS011;46155;52.364;6.580;2023-02-04T16:34:09;14.93;;;8.70;;
60306;SDS011;46155;52.364;6.580;2023-02-04T16:36:34;26.00;;;10.03;;
60306;SDS011;46155;52.364;6.580;2023-02-04T16:38:59;23.53;;;10.03;;
60306;SDS011;46155;52.364;6.580;2023-02-04T16:41:26;15.97;;;8.50;;
60306;SDS011;46155;52.364;6.580;2023-02-04T16:43:52;20.90;;;9.03;;
60306;SDS011;46155;52.364;6.580;2023-02-04T16:46:17;31.47;;;10.23;;
60306;SDS011;46155;52.364;6.580;2023-02-04T16:48:43;25.40;;;10.00;;
60306;SDS011;46155;52.364;6.580;2023-02-04T16:51:08;16.73;;;8.33;;
60306;SDS011;46155;52.364;6.580;2023-02-04T16:53:34;22.63;;;9.70;;
60306;SDS011;46155;52.364;6.580;2023-02-04T16:55:59;25.80;;;9.73;;
60306;SDS011;46155;52.364;6.580;2023-02-04T16:58:26;11.43;;;9.67;;
60306;SDS011;46155;52.364;6.580;2023-02-04T17:00:51;25.63;;;9.93;;
60306;SDS011;46155;52.364;6.580;2023-02-04T17:03:16;17.90;;;9.47;;
60306;SDS011;46155;52.364;6.580;2023-02-04T17:05:42;20.50;;;10.23;;
60306;SDS011;46155;52.364;6.580;2023-02-04T17:08:07;24.87;;;10.60;;
60306;SDS011;46155;52.364;6.580;2023-02-04T17:10:33;17.73;;;9.80;;
60306;SDS011;46155;52.364;6.580;2023-02-04T17:13:17;29.43;;;10.33;;
60306;SDS011;46155;52.364;6.580;2023-02-04T17:15:42;20.63;;;11.43;;
60306;SDS011;46155;52.364;6.580;2023-02-04T17:18:08;12.90;;;9.70;;
60306;SDS011;46155;52.364;6.580;2023-02-04T17:20:33;19.60;;;9.77;;
60306;SDS011;46155;52.364;6.580;2023-02-04T17:22:59;25.17;;;10.20;;
60306;SDS011;46155;52.364;6.580;2023-02-04T17:25:24;22.47;;;10.37;;
60306;SDS011;46155;52.364;6.580;2023-02-04T17:27:50;28.90;;;11.37;;
60306;SDS011;46155;52.364;6.580;2023-02-04T17:30:16;23.23;;;11.47;;
60306;SDS011;46155;52.364;6.580;2023-02-04T17:32:44;18.30;;;10.23;;
60306;SDS011;46155;52.364;6.580;2023-02-04T17:35:10;20.77;;;11.50;;
60306;SDS011;46155;52.364;6.580;2023-02-04T17:37:35;24.00;;;12.50;;
60306;SDS011;46155;52.364;6.580;2023-02-04T17:40:01;15.90;;;12.50;;
60306;SDS011;46155;52.364;6.580;2023-02-04T17:42:26;24.77;;;11.57;;
60306;SDS011;46155;52.364;6.580;2023-02-04T17:44:52;18.67;;;10.97;;
60306;SDS011;46155;52.364;6.580;2023-02-04T17:47:17;20.67;;;11.90;;
60306;SDS011;46155;52.364;6.580;2023-02-04T17:49:43;32.27;;;14.27;;
60306;SDS011;46155;52.364;6.580;2023-02-04T17:52:08;20.77;;;12.27;;
60306;SDS011;46155;52.364;6.580;2023-02-04T17:54:33;34.37;;;16.37;;
60306;SDS011;46155;52.364;6.580;2023-02-04T17:57:00;37.73;;;16.53;;
60306;SDS011;46155;52.364;6.580;2023-02-04T17:59:35;24.40;;;13.70;;
60306;SDS011;46155;52.364;6.580;2023-02-04T18:02:00;35.13;;;13.57;;
60306;SDS011;46155;52.364;6.580;2023-02-04T18:04:25;14.63;;;12.77;;
60306;SDS011;46155;52.364;6.580;2023-02-04T18:06:51;32.03;;;15.80;;
60306;SDS011;46155;52.364;6.580;2023-02-04T18:09:16;28.23;;;15.97;;
60306;SDS011;46155;52.364;6.580;2023-02-04T18:11:43;29.75;;;14.50;;
60306;SDS011;46155;52.364;6.580;2023-02-04T18:14:16;28.73;;;13.87;;
60306;SDS011;46155;52.364;6.580;2023-02-04T18:16:48;29.80;;;12.87;;
60306;SDS011;46155;52.364;6.580;2023-02-04T18:21:45;20.40;;;13.63;;
60306;SDS011;46155;52.364;6.580;2023-02-04T18:24:45;31.23;;;13.87;;
60306;SDS011;46155;52.364;6.580;2023-02-04T18:27:13;29.03;;;13.77;;
60306;SDS011;46155;52.364;6.580;2023-02-04T18:29:52;22.07;;;13.33;;
60306;SDS011;46155;52.364;6.580;2023-02-04T18:32:28;21.43;;;14.10;;